Time;durP1;ratioP1;P1;durP2;ratioP2;P2;SDS_P1;SDS_P2;PMS_P1;PMS_P2;Temp;Humidity;BMP_temperature;BMP_pressure;BME280_temperature;BME280_humidity;BME280_pressure;Samples;Min_cycle;Max_cycle;Signal;HPM_P1;HPM_P2
2023/10/02 00:02:40;;;;;;;97.90;91.47;;;17.00;94.50;;;;;;4997253;28;20327;-73
2023/10/02 00:05:07;;;;;;;83.90;78.37;;;17.00;94.60;;;;;;5007160;28;20292;-73
2023/10/02 00:07:42;;;;;;;58.40;53.13;;;17.00;94.40;;;;;;5025028;28;20343;-73
2023/10/02 00:10:11;;;;;;;77.32;71.70;;;17.00;94.30;;;;;;5005548;28;20352;-73
2023/10/02 00:12:37;;;;;;;84.63;79.10;;;17.00;94.40;;;;;;5012742;28;20407;-73
2023/10/02 00:15:12;;;;;;;94.60;88.37;;;16.90;94.30;;;;;;5001213;28;20335;-73
2023/10/02 00:17:43;;;;;;;107.25;100.47;;;16.90;94.20;;;;;;5010335;28;20493;-73
2023/10/02 00:20:21;;;;;;;60.43;55.03;;;16.90;94.30;;;;;;4997617;28;20073;-73
2023/10/02 00:22:47;;;;;;;84.60;78.43;;;16.90;94.40;;;;;;5015797;28;20345;-73
2023/10/02 00:25:19;;;;;;;102.77;96.37;;;16.80;94.60;;;;;;5022929;28;20380;-73
2023/10/02 00:27:48;;;;;;;43.70;39.33;;;16.80;94.40;;;;;;5004027;28;20284;-73
2023/10/02 00:30:16;;;;;;;111.03;104.57;;;16.80;94.60;;;;;;5014530;28;20308;-73
2023/10/02 00:32:45;;;;;;;101.33;94.57;;;16.80;94.70;;;;;;5003724;28;20289;-73
2023/10/02 00:35:11;;;;;;;93.03;86.87;;;16.80;95.30;;;;;;4979486;28;20681;-73
2023/10/02 00:37:46;;;;;;;81.73;75.97;;;16.70;95.40;;;;;;5001902;28;20338;-73
2023/10/02 00:40:23;;;;;;;;;;;16.80;95.60;;;;;;5000100;28;20300;-73
2023/10/02 00:42:55;;;;;;;67.77;62.03;;;16.80;95.60;;;;;;4999867;28;19924;-73
2023/10/02 00:45:22;;;;;;;82.73;76.90;;;16.80;95.50;;;;;;4994392;28;20370;-73
2023/10/02 00:47:49;;;;;;;92.93;86.33;;;16.80;95.70;;;;;;5008890;28;20284;-73
2023/10/02 00:50:23;;;;;;;97.40;90.50;;;16.80;95.50;;;;;;5008790;28;20308;-73
2023/10/02 00:53:04;;;;;;;109.97;102.30;;;16.80;95.70;;;;;;5001298;28;20316;-73
2023/10/02 00:55:34;;;;;;;119.53;112.10;;;16.70;96.10;;;;;;5001012;28;20292;-73
2023/10/02 00:58:05;;;;;;;106.50;98.70;;;16.70;96.90;;;;;;5005416;28;20312;-73
2023/10/02 01:00:42;;;;;;;92.97;86.40;;;16.70;96.30;;;;;;5003358;28;20290;-73
2023/10/02 01:03:17;;;;;;;110.87;103.83;;;16.70;96.40;;;;;;4991505;28;20286;-73
2023/10/02 01:05:50;;;;;;;;;;;16.70;96.70;;;;;;5017971;28;20296;-73
2023/10/02 01:08:23;;;;;;;91.03;84.10;;;16.80;96.90;;;;;;5000954;28;20014;-73
2023/10/02 01:10:59;;;;;;;77.27;71.00;;;16.80;96.60;;;;;;5005870;28;20392;-73
2023/10/02 01:13:27;;;;;;;76.30;69.77;;;16.80;96.10;;;;;;5003068;28;20321;-73
2023/10/02 01:15:55;;;;;;;83.87;77.97;;;16.80;96.10;;;;;;5003080;28;20723;-73
2023/10/02 01:18:27;;;;;;;74.03;68.30;;;16.80;95.90;;;;;;5007933;28;20286;-73
2023/10/02 01:20:56;;;;;;;89.30;82.87;;;16.80;95.80;;;;;;5013187;28;20641;-73
2023/10/02 01:23:31;;;;;;;58.03;52.80;;;16.80;95.90;;;;;;5005964;28;20289;-73
2023/10/02 01:26:00;;;;;;;104.38;97.22;;;16.80;96.00;;;;;;4992240;28;20288;-73
2023/10/02 01:28:51;;;;;;;99.40;91.93;;;16.80;96.10;;;;;;5005898;28;20045;-73
2023/10/02 01:31:35;;;;;;;92.27;85.60;;;16.80;96.10;;;;;;5004846;28;20359;-73
2023/10/02 01:34:05;;;;;;;80.65;74.60;;;16.80;96.20;;;;;;5002781;28;20689;-73
2023/10/02 01:36:32;;;;;;;111.77;104.17;;;16.70;96.20;;;;;;5005851;28;20376;-73
2023/10/02 01:39:13;;;;;;;93.73;86.63;;;16.80;96.20;;;;;;4999735;28;20793;-73
2023/10/02 01:41:52;;;;;;;97.17;90.30;;;16.70;96.10;;;;;;5006546;28;20276;-73
2023/10/02 01:44:20;;;;;;;100.97;93.67;;;16.70;96.20;;;;;;5002811;28;20292;-73
2023/10/02 01:46:49;;;;;;;104.87;97.37;;;16.70;96.40;;;;;;5007913;28;20644;-73
2023/10/02 01:49:25;;;;;;;117.73;110.30;;;16.70;96.40;;;;;;5006111;28;20280;-73
2023/10/02 01:51:57;;;;;;;87.97;81.63;;;16.60;96.30;;;;;;5001167;28;20300;-73
2023/10/02 01:54:25;;;;;;;79.53;73.30;;;16.60;96.40;;;;;;5009576;28;20284;-73
2023/10/02 01:56:52;;;;;;;100.53;93.50;;;16.60;96.50;;;;;;5006837;28;20706;-73
2023/10/02 01:59:21;;;;;;;124.23;115.90;;;16.50;96.40;;;;;;5001400;28;20283;-73
2023/10/02 02:01:52;;;;;;;123.37;115.27;;;16.50;96.70;;;;;;4998743;28;20281;-73
2023/10/02 02:04:21;;;;;;;110.17;102.77;;;16.50;96.60;;;;;;5022014;28;20315;-73
2023/10/02 02:06:57;;;;;;;123.97;115.67;;;16.50;96.70;;;;;;5008994;28;20289;-73
2023/10/02 02:09:25;;;;;;;88.83;82.47;;;16.50;96.90;;;;;;4997859;28;20344;-73
2023/10/02 02:12:07;;;;;;;91.67;84.80;;;16.50;97.00;;;;;;5007770;28;20324;-73
2023/10/02 02:14:40;;;;;;;116.10;108.60;;;16.50;96.80;;;;;;5006523;28;20302;-73
2023/10/02 02:17:10;;;;;;;93.47;86.57;;;16.50;96.90;;;;;;5008343;28;20708;-73
2023/10/02 02:19:49;;;;;;;71.93;66.37;;;16.40;96.90;;;;;;4985063;28;20289;-74
2023/10/02 02:22:19;;;;;;;109.37;102.30;;;16.40;97.10;;;;;;5007996;28;20293;-73
2023/10/02 02:24:46;;;;;;;106.47;99.63;;;16.40;97.30;;;;;;5007019;28;20285;-73
2023/10/02 02:27:12;;;;;;;85.90;79.37;;;16.40;97.20;;;;;;5009798;28;20321;-73
2023/10/02 02:29:38;;;;;;;116.03;108.50;;;16.40;97.10;;;;;;5006601;28;20443;-73
2023/10/02 02:32:07;;;;;;;120.20;112.67;;;16.40;97.10;;;;;;4985767;28;20301;-73
2023/10/02 02:34:33;;;;;;;111.67;104.63;;;16.40;97.10;;;;;;5005883;28;20434;-73
2023/10/02 02:36:59;;;;;;;109.03;102.40;;;16.40;97.10;;;;;;4991741;28;20282;-73
2023/10/02 02:39:27;;;;;;;113.20;106.13;;;16.30;97.20;;;;;;5005507;28;20045;-73
2023/10/02 02:44:45;;;;;;;71.60;65.70;;;16.30;97.30;;;;;;4998723;28;20316;-73
2023/10/02 02:47:12;;;;;;;89.80;82.90;;;16.30;97.30;;;;;;5010745;28;20371;-73
2023/10/02 02:49:58;;;;;;;119.77;112.33;;;16.30;97.50;;;;;;5011792;28;20346;-73
2023/10/02 02:52:25;;;;;;;;;;;16.30;97.40;;;;;;5008700;28;20304;-73
2023/10/02 02:54:59;;;;;;;106.00;98.70;;;16.30;97.90;;;;;;5002206;28;19917;-73
2023/10/02 02:57:31;;;;;;;102.77;95.97;;;16.30;97.80;;;;;;5005474;28;20784;-73
2023/10/02 03:02:55;;;;;;;86.97;80.22;;;16.30;97.50;;;;;;4999061;28;20645;-73
2023/10/02 03:05:22;;;;;;;109.00;101.87;;;16.20;97.50;;;;;;4996190;28;20045;-73
2023/10/02 03:07:56;;;;;;;104.10;96.77;;;16.20;97.50;;;;;;5004029;28;20284;-73
2023/10/02 03:10:24;;;;;;;77.70;71.47;;;16.20;97.90;;;;;;5003302;28;20385;-73
2023/10/02 03:12:51;;;;;;;94.00;86.83;;;16.10;98.20;;;;;;5002096;28;20295;-73
2023/10/02 03:16:08;;;;;;;164.67;155.07;;;16.10;98.40;;;;;;5006093;28;20432;-73
2023/10/02 03:18:23;;;;;;;107.70;100.27;;;16.00;98.40;;;;;;4998474;28;20380;-73
2023/10/02 03:20:50;;;;;;;126.13;117.83;;;16.00;98.30;;;;;;4992400;28;20296;-73
2023/10/02 03:23:18;;;;;;;57.80;52.20;;;16.00;98.30;;;;;;5005145;28;20293;-73
2023/10/02 03:25:47;;;;;;;66.17;60.23;;;16.00;98.10;;;;;;4995245;28;20681;-73
2023/10/02 03:28:27;;;;;;;79.33;72.43;;;16.00;98.40;;;;;;5007090;28;20281;-73
2023/10/02 03:30:57;;;;;;;207.40;195.40;;;15.90;99.10;;;;;;4992150;28;20860;-73
2023/10/02 03:33:25;;;;;;;164.47;154.63;;;15.90;99.90;;;;;;4997113;28;20288;-73
2023/10/02 03:36:08;;;;;;;115.20;106.80;;;15.90;99.90;;;;;;4996459;28;20296;-73
2023/10/02 03:38:41;;;;;;;133.57;124.37;;;15.90;99.90;;;;;;5000736;28;20374;-73
2023/10/02 03:41:07;;;;;;;138.97;129.70;;;15.90;99.90;;;;;;4993170;28;20285;-73
2023/10/02 03:43:35;;;;;;;111.83;103.40;;;15.90;99.70;;;;;;5005657;28;20984;-71
2023/10/02 03:46:04;;;;;;;119.97;111.23;;;15.90;99.40;;;;;;5007408;28;20045;-71
2023/10/02 03:48:29;;;;;;;128.27;119.67;;;15.90;99.60;;;;;;5010339;28;20288;-70
2023/10/02 03:50:58;;;;;;;130.87;122.03;;;15.80;99.60;;;;;;5001377;28;20317;-70
2023/10/02 03:53:30;;;;;;;108.83;100.97;;;15.80;99.20;;;;;;5003683;28;20083;-70
2023/10/02 03:58:53;;;;;;;134.93;125.87;;;15.80;98.90;;;;;;5006973;28;20819;-73
2023/10/02 04:01:30;;;;;;;124.27;115.33;;;15.70;99.00;;;;;;5003246;28;20837;-73
2023/10/02 04:06:54;;;;;;;134.18;125.00;;;15.70;99.30;;;;;;5005394;28;20281;-73
2023/10/02 04:09:21;;;;;;;132.80;123.30;;;15.70;99.40;;;;;;5011209;28;20044;-73
2023/10/02 04:11:50;;;;;;;152.77;143.00;;;15.70;99.40;;;;;;5009441;28;20799;-73
2023/10/02 04:14:31;;;;;;;127.83;118.77;;;15.70;99.50;;;;;;5011207;28;20708;-73
2023/10/02 04:17:10;;;;;;;88.23;80.53;;;15.70;99.20;;;;;;5010471;28;20339;-73
2023/10/02 04:19:43;;;;;;;148.37;138.77;;;15.70;99.40;;;;;;5007945;28;20351;-73
2023/10/02 04:22:19;;;;;;;87.80;80.43;;;15.70;99.40;;;;;;4999761;28;20285;-73
2023/10/02 04:24:51;;;;;;;115.70;107.40;;;15.80;99.30;;;;;;4993627;28;20371;-73
2023/10/02 04:28:27;;;;;;;149.43;140.17;;;15.80;99.90;;;;;;4989449;28;20708;-73
2023/10/02 04:30:25;;;;;;;175.70;165.00;;;15.80;99.80;;;;;;4994307;28;20964;-73
2023/10/02 04:32:59;;;;;;;129.77;120.43;;;15.80;99.90;;;;;;5009655;28;20458;-73
2023/10/02 04:35:44;;;;;;;153.23;143.30;;;15.80;99.90;;;;;;5010759;28;20293;-73
2023/10/02 04:38:14;;;;;;;157.45;147.35;;;15.70;99.90;;;;;;5015971;28;20293;-73
2023/10/02 04:40:49;;;;;;;178.60;168.10;;;15.70;99.90;;;;;;4996477;28;20129;-73
2023/10/02 04:43:19;;;;;;;182.60;171.50;;;15.70;99.90;;;;;;4997426;28;20300;-73
2023/10/02 04:46:08;;;;;;;180.63;169.83;;;15.70;99.90;;;;;;5023359;28;20377;-73
2023/10/02 04:48:42;;;;;;;262.97;249.33;;;15.70;99.90;;;;;;5007838;28;20645;-72
2023/10/02 04:51:12;;;;;;;275.13;260.57;;;15.70;99.90;;;;;;5003033;28;20289;-73
2023/10/02 04:53:45;;;;;;;276.03;261.47;;;15.70;99.90;;;;;;5009457;28;20327;-73
2023/10/02 04:56:21;;;;;;;192.83;181.43;;;15.70;99.90;;;;;;4999576;28;20288;-73
2023/10/02 04:58:51;;;;;;;151.40;141.90;;;15.60;99.90;;;;;;5002404;28;20648;-73
2023/10/02 05:01:41;;;;;;;164.17;153.37;;;15.60;99.90;;;;;;5003994;28;20785;-73
2023/10/02 05:04:08;;;;;;;207.57;195.73;;;15.60;99.90;;;;;;4992629;28;20296;-73
2023/10/02 05:06:44;;;;;;;269.67;255.57;;;15.50;99.90;;;;;;5003997;28;20634;-73
2023/10/02 05:09:25;;;;;;;182.67;172.10;;;15.50;99.90;;;;;;5000394;28;20300;-73
2023/10/02 05:12:03;;;;;;;204.43;192.80;;;15.50;99.90;;;;;;5002039;28;20281;-73
2023/10/02 05:14:33;;;;;;;171.03;161.00;;;15.40;99.90;;;;;;5009136;28;20276;-73
2023/10/02 05:17:41;;;;;;;220.23;207.93;;;15.40;99.90;;;;;;5025053;28;20288;-73
2023/10/02 05:20:04;;;;;;;248.40;235.15;;;15.40;99.90;;;;;;5001823;28;20299;-73
2023/10/02 05:22:33;;;;;;;304.93;289.93;;;15.30;99.90;;;;;;5007150;28;20041;-73
2023/10/02 05:24:59;;;;;;;293.40;278.73;;;15.30;99.90;;;;;;5004623;28;20284;-73
2023/10/02 05:27:30;;;;;;;314.03;298.50;;;15.30;99.90;;;;;;5007288;28;20296;-73
2023/10/02 05:30:00;;;;;;;349.83;332.47;;;15.30;99.90;;;;;;5002810;28;20308;-73
2023/10/02 05:32:31;;;;;;;333.60;317.07;;;15.30;99.90;;;;;;5004981;28;20827;-73
2023/10/02 05:35:16;;;;;;;310.27;295.00;;;15.20;99.90;;;;;;5007775;28;20685;-73
2023/10/02 05:37:46;;;;;;;257.33;244.40;;;15.20;99.90;;;;;;5000609;28;20285;-73
2023/10/02 05:45:40;;;;;;;111.17;103.20;;;15.20;99.90;;;;;;5001792;28;20856;-73
2023/10/02 05:48:07;;;;;;;62.80;57.20;;;15.20;99.90;;;;;;5006728;28;20299;-73
2023/10/02 05:50:40;;;;;;;50.07;45.10;;;15.20;99.90;;;;;;4994959;28;20313;-73
2023/10/02 05:53:06;;;;;;;278.10;264.73;;;15.20;99.90;;;;;;5002217;28;20784;-73
2023/10/02 05:55:56;;;;;;;325.07;309.03;;;15.20;99.90;;;;;;5008374;28;20351;-73
2023/10/02 05:58:31;;;;;;;227.53;215.30;;;15.30;99.90;;;;;;5007284;28;20273;-73
2023/10/02 06:01:18;;;;;;;189.97;179.30;;;15.30;99.90;;;;;;4997849;28;20375;-73
2023/10/02 06:04:00;;;;;;;126.03;117.47;;;15.30;99.90;;;;;;5007635;28;20380;-73
2023/10/02 06:06:35;;;;;;;400.33;380.47;;;15.30;99.90;;;;;;5008262;28;20325;-73
2023/10/02 06:09:03;;;;;;;411.98;391.00;;;15.30;99.90;;;;;;5004657;28;20304;-73
2023/10/02 06:11:33;;;;;;;405.33;384.93;;;15.40;99.90;;;;;;5002186;28;20049;-73
2023/10/02 06:14:10;;;;;;;401.67;381.63;;;15.40;99.90;;;;;;5008250;28;20281;-73
2023/10/02 06:16:40;;;;;;;368.47;350.27;;;15.40;99.90;;;;;;5009873;28;20304;-73
2023/10/02 06:19:07;;;;;;;425.50;403.20;;;15.40;99.90;;;;;;5007501;28;20881;-73
2023/10/02 06:21:47;;;;;;;369.40;350.27;;;15.50;99.90;;;;;;5016043;28;20303;-73
2023/10/02 06:24:17;;;;;;;376.17;357.13;;;15.50;99.90;;;;;;5007344;28;20715;-73
2023/10/02 06:26:52;;;;;;;439.53;417.63;;;15.60;99.90;;;;;;5004738;28;20293;-73
2023/10/02 06:29:25;;;;;;;400.83;380.33;;;15.60;99.90;;;;;;5000924;28;20792;-73
2023/10/02 06:31:58;;;;;;;384.27;364.97;;;15.70;99.90;;;;;;5008668;28;20431;-73
2023/10/02 06:34:37;;;;;;;364.23;345.90;;;15.70;99.90;;;;;;4993218;28;20281;-73
2023/10/02 06:37:17;;;;;;;394.30;374.50;;;15.80;99.90;;;;;;5007093;28;20644;-73
2023/10/02 06:40:13;;;;;;;412.47;391.40;;;15.80;99.90;;;;;;5009826;28;20515;-73
2023/10/02 06:42:50;;;;;;;452.77;429.40;;;15.90;99.90;;;;;;4990600;28;20392;-73
2023/10/02 06:45:18;;;;;;;405.23;384.60;;;15.90;99.90;;;;;;5010479;28;20379;-73
2023/10/02 06:47:44;;;;;;;416.87;396.23;;;16.00;99.90;;;;;;5011315;28;20277;-73
2023/10/02 06:52:55;;;;;;;372.33;353.63;;;16.00;99.90;;;;;;5011160;28;20773;-73
2023/10/02 06:55:21;;;;;;;428.13;407.27;;;16.10;99.90;;;;;;5012007;28;20045;-73
2023/10/02 06:57:50;;;;;;;417.13;396.07;;;16.10;99.90;;;;;;5010723;28;20404;-73
2023/10/02 07:00:19;;;;;;;389.17;369.40;;;16.20;99.90;;;;;;5006964;28;20854;-73
2023/10/02 07:02:57;;;;;;;406.13;385.50;;;16.30;99.90;;;;;;4994099;28;20281;-73
2023/10/02 07:05:32;;;;;;;432.03;409.80;;;16.30;99.90;;;;;;5009514;28;20360;-73
2023/10/02 07:08:18;;;;;;;408.48;387.80;;;16.50;99.90;;;;;;5026936;28;20288;-73
2023/10/02 07:10:45;;;;;;;418.03;397.10;;;16.60;99.90;;;;;;5012791;28;20069;-73
2023/10/02 07:13:20;;;;;;;451.07;427.63;;;16.70;99.90;;;;;;5012780;28;20393;-73
2023/10/02 07:15:47;;;;;;;;;;;16.80;99.90;;;;;;5011424;28;20297;-73
2023/10/02 07:18:16;;;;;;;404.23;383.77;;;16.90;99.90;;;;;;5009176;28;19917;-73
2023/10/02 07:20:49;;;;;;;457.53;433.97;;;17.00;99.90;;;;;;5001376;28;20780;-73
2023/10/02 07:23:19;;;;;;;461.00;437.43;;;17.00;99.90;;;;;;5001290;28;20395;-73
2023/10/02 07:25:51;;;;;;;489.20;463.03;;;17.10;99.90;;;;;;5004677;28;20811;-74
2023/10/02 07:28:20;;;;;;;499.63;473.77;;;17.30;99.90;;;;;;4999471;28;20285;-74
2023/10/02 07:30:46;;;;;;;465.27;441.33;;;17.40;99.90;;;;;;5004722;28;20305;-74
2023/10/02 07:33:13;;;;;;;494.57;468.33;;;17.50;99.90;;;;;;5006256;28;20808;-74
2023/10/02 07:35:39;;;;;;;472.80;448.33;;;17.70;99.90;;;;;;5007983;28;20288;-73
2023/10/02 07:38:08;;;;;;;537.43;508.23;;;17.80;99.90;;;;;;5003661;28;20426;-73
2023/10/02 07:40:47;;;;;;;506.60;479.97;;;17.90;99.90;;;;;;4995968;28;20068;-73
2023/10/02 07:43:14;;;;;;;533.90;505.23;;;17.90;99.90;;;;;;4998222;28;20041;-73
2023/10/02 07:45:40;;;;;;;551.50;520.90;;;18.00;99.90;;;;;;4988960;28;20048;-73
2023/10/02 07:48:08;;;;;;;525.13;496.67;;;18.10;99.90;;;;;;5005968;28;20038;-74
2023/10/02 07:50:35;;;;;;;548.23;518.63;;;18.10;99.20;;;;;;5004564;28;20050;-74
2023/10/02 07:53:05;;;;;;;573.50;542.43;;;18.10;98.90;;;;;;5005528;28;20087;-73
2023/10/02 07:55:46;;;;;;;507.03;480.40;;;18.20;98.80;;;;;;4997683;28;20140;-73
2023/10/02 07:58:19;;;;;;;537.50;509.20;;;18.20;98.70;;;;;;5000497;28;20040;-73
2023/10/02 08:00:49;;;;;;;562.73;532.63;;;18.20;98.30;;;;;;5001670;28;20200;-74
2023/10/02 08:03:42;;;;;;;533.17;505.03;;;18.30;98.50;;;;;;5007871;28;20048;-74
2023/10/02 08:06:21;;;;;;;589.80;558.03;;;18.40;98.40;;;;;;5003004;28;20105;-73
2023/10/02 08:09:35;;;;;;;523.27;495.97;;;18.50;97.90;;;;;;4992374;28;20050;-74
2023/10/02 08:11:41;;;;;;;518.87;491.93;;;18.60;97.50;;;;;;5011027;28;20058;-74
2023/10/02 08:14:34;;;;;;;569.83;539.33;;;18.70;97.60;;;;;;5007061;28;20145;-73
2023/10/02 08:17:00;;;;;;;539.03;510.13;;;18.80;97.50;;;;;;5013941;28;20045;-74
2023/10/02 08:19:28;;;;;;;581.20;549.83;;;18.90;97.50;;;;;;4994730;28;20560;-73
2023/10/02 08:21:53;;;;;;;608.73;575.70;;;19.10;97.20;;;;;;5007620;28;20437;-74
2023/10/02 08:24:20;;;;;;;629.33;593.07;;;19.30;95.70;;;;;;5002532;28;20081;-74
2023/10/02 08:26:47;;;;;;;617.00;583.10;;;19.40;95.50;;;;;;4998949;28;20038;-74
2023/10/02 08:29:18;;;;;;;637.00;601.03;;;19.40;95.40;;;;;;5002916;28;20045;-74
2023/10/02 08:31:48;;;;;;;634.80;598.93;;;19.30;94.20;;;;;;5001919;28;20618;-74
2023/10/02 08:34:24;;;;;;;591.80;558.70;;;19.20;94.30;;;;;;5002779;28;20037;-74
2023/10/02 08:37:05;;;;;;;637.87;602.33;;;19.20;94.70;;;;;;5003674;28;20622;-74
2023/10/02 08:39:34;;;;;;;611.97;577.13;;;19.10;94.90;;;;;;5000435;28;20041;-74
2023/10/02 08:42:08;;;;;;;609.30;576.17;;;19.00;95.10;;;;;;5002230;28;20533;-74
2023/10/02 08:44:43;;;;;;;590.37;558.67;;;19.10;95.40;;;;;;5023203;28;20034;-74
2023/10/02 08:47:12;;;;;;;635.23;599.00;;;19.20;95.30;;;;;;5004564;28;20073;-74
2023/10/02 08:49:41;;;;;;;631.47;596.37;;;19.30;95.20;;;;;;5005111;28;20073;-74
2023/10/02 08:52:10;;;;;;;666.23;627.60;;;19.40;95.30;;;;;;5010244;28;20049;-74
2023/10/02 08:54:39;;;;;;;697.57;653.03;;;19.50;95.40;;;;;;5008119;28;20042;-74
2023/10/02 08:57:06;;;;;;;641.87;605.70;;;19.60;94.50;;;;;;5002108;28;20034;-74
2023/10/02 08:59:38;;;;;;;635.53;598.73;;;19.70;94.20;;;;;;5009557;28;20450;-74
2023/10/02 09:02:14;;;;;;;635.63;600.03;;;19.70;93.80;;;;;;5008393;28;20038;-74
2023/10/02 09:04:52;;;;;;;603.97;570.80;;;19.70;93.20;;;;;;5001044;28;20402;-74
2023/10/02 09:08:01;;;;;;;646.07;609.40;;;19.70;93.70;;;;;;5006541;28;20043;-74
2023/10/02 09:10:28;;;;;;;572.73;541.70;;;19.70;94.00;;;;;;5005974;28;20045;-74
2023/10/02 09:13:11;;;;;;;614.23;580.03;;;19.80;94.10;;;;;;5002953;28;20119;-74
2023/10/02 09:15:37;;;;;;;635.37;599.73;;;19.80;93.50;;;;;;5008071;28;20106;-74
2023/10/02 09:18:22;;;;;;;631.93;596.60;;;19.80;93.40;;;;;;5005147;28;20074;-74
2023/10/02 09:20:53;;;;;;;612.53;578.78;;;19.70;93.60;;;;;;5001300;28;20041;-74
2023/10/02 09:23:23;;;;;;;661.67;622.57;;;19.80;93.90;;;;;;4996095;28;20057;-74
2023/10/02 09:26:23;;;;;;;609.23;575.63;;;19.80;93.70;;;;;;4996799;28;20173;-74
2023/10/02 09:28:58;;;;;;;614.73;580.30;;;19.90;93.60;;;;;;5006069;28;20121;-74
2023/10/02 09:31:30;;;;;;;669.00;630.33;;;20.10;93.20;;;;;;4989995;28;20037;-74
2023/10/02 09:33:56;;;;;;;639.53;603.00;;;20.20;93.40;;;;;;5003465;28;20128;-74
2023/10/02 09:36:36;;;;;;;683.33;642.80;;;20.30;92.50;;;;;;5012248;28;20107;-74
2023/10/02 09:41:54;;;;;;;658.43;620.83;;;20.20;91.60;;;;;;5007223;28;20072;-74
2023/10/02 09:44:27;;;;;;;633.70;597.90;;;20.30;91.70;;;;;;5005091;28;21041;-74
2023/10/02 09:46:53;;;;;;;689.90;648.70;;;20.30;91.20;;;;;;5006372;28;20052;-74
2023/10/02 09:49:30;;;;;;;695.23;654.90;;;20.40;90.90;;;;;;4994661;28;20144;-74
2023/10/02 09:52:10;;;;;;;679.60;640.10;;;20.40;91.30;;;;;;5006026;28;20104;-74
2023/10/02 09:55:05;;;;;;;622.63;588.33;;;20.40;90.30;;;;;;5002213;28;20042;-74
2023/10/02 09:57:37;;;;;;;630.28;595.63;;;20.40;91.00;;;;;;5005428;28;20073;-74
2023/10/02 10:00:34;;;;;;;700.77;660.33;;;20.30;91.10;;;;;;5005839;28;20052;-74
2023/10/02 10:03:22;;;;;;;734.53;690.90;;;20.50;92.00;;;;;;5008917;28;20044;-74
2023/10/02 10:06:06;;;;;;;710.13;668.67;;;20.70;92.10;;;;;;5004493;28;20125;-74
2023/10/02 10:11:44;;;;;;;634.30;596.97;;;21.10;90.70;;;;;;5010973;28;20521;-74
2023/10/02 10:14:37;;;;;;;539.63;511.67;;;21.30;88.50;;;;;;5003144;28;20034;-74
2023/10/02 10:17:16;;;;;;;631.13;597.03;;;21.50;88.40;;;;;;5003443;28;20042;-74
2023/10/02 10:20:21;;;;;;;646.80;610.97;;;21.60;87.20;;;;;;5003075;28;20132;-74
2023/10/02 10:22:51;;;;;;;595.35;563.38;;;21.70;87.40;;;;;;5008018;28;20121;-74
2023/10/02 10:27:55;;;;;;;656.47;620.20;;;21.80;85.40;;;;;;5000848;28;20037;-74
2023/10/02 10:33:20;;;;;;;642.08;606.63;;;21.70;85.90;;;;;;5003979;28;20092;-72
2023/10/02 10:35:57;;;;;;;645.53;609.27;;;21.70;86.70;;;;;;5020999;28;20475;-71
2023/10/02 10:38:25;;;;;;;654.23;617.30;;;21.70;86.60;;;;;;4999935;28;20042;-72
2023/10/02 10:41:02;;;;;;;654.63;617.87;;;21.70;86.90;;;;;;5003978;28;20050;-72
2023/10/02 10:43:44;;;;;;;671.90;633.80;;;21.70;86.70;;;;;;5009020;28;20050;-71
2023/10/02 10:46:16;;;;;;;679.87;641.13;;;21.70;87.10;;;;;;5007023;28;20489;-71
2023/10/02 10:48:45;;;;;;;658.30;621.23;;;21.60;86.80;;;;;;5007756;28;20136;-71
2023/10/02 10:51:20;;;;;;;659.30;623.10;;;21.60;87.10;;;;;;5004195;28;20050;-71
2023/10/02 10:53:54;;;;;;;727.47;684.80;;;21.60;87.30;;;;;;5006368;28;20077;-71
2023/10/02 10:56:22;;;;;;;732.13;685.77;;;21.60;87.40;;;;;;5004139;28;20050;-71
2023/10/02 10:58:53;;;;;;;713.07;671.00;;;21.60;85.70;;;;;;5007400;28;20037;-71
2023/10/02 11:01:21;;;;;;;708.67;666.80;;;21.70;86.20;;;;;;5008256;28;20124;-71
2023/10/02 11:03:54;;;;;;;734.37;689.57;;;21.60;86.00;;;;;;5008901;28;20061;-71
2023/10/02 11:06:23;;;;;;;749.70;704.63;;;21.70;86.70;;;;;;5011818;28;20486;-71
2023/10/02 11:09:11;;;;;;;722.70;679.97;;;21.70;86.40;;;;;;5007340;28;20043;-72
2023/10/02 11:11:49;;;;;;;702.93;661.80;;;21.70;86.30;;;;;;5005964;28;20046;-71
2023/10/02 11:14:20;;;;;;;731.90;688.17;;;21.80;86.30;;;;;;5015289;28;20038;-71
2023/10/02 11:16:50;;;;;;;702.63;661.63;;;21.90;85.80;;;;;;5015646;28;20514;-71
2023/10/02 11:22:14;;;;;;;722.53;679.97;;;22.00;85.30;;;;;;5003978;28;20129;-72
2023/10/02 11:24:43;;;;;;;715.93;665.00;;;22.10;85.10;;;;;;5015298;28;20115;-72
2023/10/02 11:27:15;;;;;;;658.63;621.23;;;22.00;83.90;;;;;;5003121;28;20084;-71
2023/10/02 11:29:42;;;;;;;640.93;605.87;;;22.00;84.80;;;;;;4997313;28;20360;-71
2023/10/02 11:32:22;;;;;;;636.80;601.17;;;22.00;85.00;;;;;;5007399;28;20037;-71
2023/10/02 11:34:49;;;;;;;722.83;664.70;;;22.00;84.30;;;;;;5011938;28;20046;-71
2023/10/02 11:37:16;;;;;;;745.57;695.37;;;22.00;83.10;;;;;;5007269;28;20038;-71
2023/10/02 11:39:43;;;;;;;609.60;575.83;;;21.90;83.20;;;;;;5005296;28;20104;-71
2023/10/02 11:42:09;;;;;;;614.67;581.07;;;21.90;84.10;;;;;;5008375;28;20037;-71
2023/10/02 11:44:35;;;;;;;587.27;555.47;;;21.90;84.00;;;;;;5003086;28;20041;-72
2023/10/02 11:47:01;;;;;;;625.90;591.73;;;21.90;83.40;;;;;;4992171;28;20045;-73
2023/10/02 11:49:29;;;;;;;620.20;585.90;;;21.90;84.30;;;;;;5006684;28;20048;-73
2023/10/02 11:52:00;;;;;;;576.87;545.97;;;21.90;83.80;;;;;;5006397;28;20045;-73
2023/10/02 11:54:27;;;;;;;577.00;546.47;;;21.90;83.40;;;;;;5003032;28;20037;-73
2023/10/02 11:56:53;;;;;;;598.07;565.20;;;21.80;84.30;;;;;;5006846;28;20095;-73
2023/10/02 11:59:19;;;;;;;604.53;571.40;;;21.90;84.40;;;;;;5011339;28;20088;-73
2023/10/02 12:01:47;;;;;;;599.80;566.67;;;21.80;84.10;;;;;;5011029;28;20054;-73
2023/10/02 12:04:14;;;;;;;599.77;567.20;;;21.90;84.10;;;;;;5009581;28;20053;-73
2023/10/02 12:06:41;;;;;;;593.33;561.67;;;22.00;84.00;;;;;;5008317;28;20034;-73
2023/10/02 12:09:06;;;;;;;639.53;603.17;;;22.10;84.00;;;;;;4993211;28;20108;-73
2023/10/02 12:11:34;;;;;;;599.43;566.10;;;22.20;84.00;;;;;;5009009;28;20497;-73
2023/10/02 12:14:02;;;;;;;558.97;529.93;;;22.10;82.30;;;;;;5001564;28;20490;-73
2023/10/02 12:16:28;;;;;;;626.17;590.73;;;22.10;83.20;;;;;;5008629;28;20058;-73
2023/10/02 12:18:54;;;;;;;574.97;543.93;;;22.10;82.90;;;;;;5002497;28;20052;-73
2023/10/02 12:21:21;;;;;;;636.83;601.33;;;22.10;83.20;;;;;;5004015;28;20037;-73
2023/10/02 12:23:48;;;;;;;569.43;538.63;;;22.00;82.60;;;;;;4999688;28;20116;-73
2023/10/02 12:26:20;;;;;;;545.07;516.73;;;22.00;83.10;;;;;;4999446;28;20042;-73
2023/10/02 12:28:46;;;;;;;564.60;534.73;;;22.10;83.00;;;;;;5003780;28;20046;-73
2023/10/02 12:31:19;;;;;;;588.07;556.03;;;22.10;82.80;;;;;;5022378;28;20073;-73
2023/10/02 12:33:47;;;;;;;563.93;534.27;;;22.20;82.80;;;;;;5005697;28;20034;-73
2023/10/02 12:36:22;;;;;;;614.70;580.63;;;22.20;82.70;;;;;;5003117;28;20072;-73
2023/10/02 12:38:49;;;;;;;602.63;569.45;;;22.20;82.10;;;;;;5007156;28;20049;-73
2023/10/02 12:41:30;;;;;;;624.90;589.37;;;22.30;82.60;;;;;;5005064;28;20562;-73
2023/10/02 12:43:56;;;;;;;581.13;549.53;;;22.40;82.20;;;;;;5003132;28;20058;-73
2023/10/02 12:46:25;;;;;;;601.63;568.67;;;22.30;81.60;;;;;;5002396;28;20471;-73
2023/10/02 12:48:51;;;;;;;554.93;523.47;;;22.30;81.80;;;;;;4995286;28;20038;-72
2023/10/02 12:51:18;;;;;;;638.00;601.53;;;22.20;82.40;;;;;;5002074;28;20116;-72
2023/10/02 12:53:45;;;;;;;696.47;654.27;;;22.20;82.60;;;;;;5005494;28;20076;-73
2023/10/02 12:56:21;;;;;;;686.90;646.73;;;22.20;82.10;;;;;;5002965;28;20034;-73
2023/10/02 12:58:48;;;;;;;672.33;632.43;;;22.20;82.80;;;;;;5005944;28;20077;-73
2023/10/02 13:01:16;;;;;;;658.37;620.77;;;22.20;82.80;;;;;;5010687;28;20041;-73
2023/10/02 13:03:44;;;;;;;653.40;615.47;;;22.20;82.80;;;;;;5008195;28;20046;-73
2023/10/02 13:06:15;;;;;;;627.50;592.73;;;22.20;82.40;;;;;;5007370;28;20100;-73
2023/10/02 13:08:42;;;;;;;650.13;613.87;;;22.20;82.60;;;;;;5003850;28;20108;-73
2023/10/02 13:11:12;;;;;;;646.77;610.27;;;22.40;82.90;;;;;;5005365;28;20066;-73
2023/10/02 13:13:44;;;;;;;654.83;616.93;;;22.40;82.40;;;;;;5006334;28;20053;-73
2023/10/02 13:16:11;;;;;;;669.93;629.70;;;22.50;82.10;;;;;;4998452;28;20569;-73